Latest Weather Observations for Nullarbor

IDS60801

Issued at 11:31 am CST Monday 27 June 2016 (issued every 30 minutes, with the page automatically refreshed every 10 minutes)

About weather observations | Map of weather stations | Latest weather observations for SA | Other Formats
Station Details ID: 018106 Name: NULLARBOR Lat: -31.45 Lon: 130.90 Height: 64.0 m
Data from the previous 72 hours. | See also: Recent months at Nullarbor
Date/Time
CST
Temp
°C
App
Temp
°C
Dew
Point
°C
Rel
Hum
%
Delta-T
°C
Wind Press
QNH
hPa
Press
MSL
hPa
Rain since
9am
mm
Dir  Spd
km/h
Gust
km/h
Spd
kts
Gust
kts
27/11:30am 14.1 10.2 8.5 69 2.8 WNW 19 24 10 13 1026.4 1026.4 0.0
27/11:00am 13.3 10.0 9.4 77 2.0 WNW 17 20 9 11 1026.6 1026.6 0.0
27/10:30am 12.1 9.1 9.3 83 1.4 WNW 15 20 8 11 1026.5 1026.5 0.0
27/10:00am 10.5 6.7 8.9 90 0.8 WNW 19 20 10 11 1026.3 1026.3 0.0
27/09:30am 9.1 6.4 9.0 99 0.0 WNW 13 17 7 9 1026.0 1026.0 0.0
27/09:00am 7.4 3.9 7.3 99 0.0 NW 15 17 8 9 1025.8 1025.8 1.4
27/08:30am 6.1 2.7 6.1 100 0.0 NW 13 17 7 9 1025.7 1025.7 1.4
27/08:00am 5.0 1.0 5.0 100 0.0 NW 15 19 8 10 1025.4 1025.4 1.4
27/07:30am 5.0 1.4 5.0 100 0.0 NW 13 17 7 9 1025.1 1025.1 1.4
27/07:00am 5.3 1.8 5.3 100 0.0 NW 13 15 7 8 1024.8 1024.8 1.4
27/06:30am 5.8 2.4 5.8 100 0.0 NW 13 15 7 8 1024.5 1024.5 1.4
27/06:00am 6.0 2.6 6.0 100 0.0 NW 13 17 7 9 1024.3 1024.3 1.4
27/05:30am 6.2 2.5 6.2 100 0.0 WNW 15 17 8 9 1024.0 1024.0 1.4
27/05:00am 5.9 2.9 5.9 100 0.0 WNW 11 13 6 7 1023.9 1023.9 1.4
27/04:30am 6.3 2.6 6.3 100 0.0 NW 15 17 8 9 1023.8 1023.8 1.4
27/04:00am 6.6 3.7 6.5 99 0.0 NW 11 13 6 7 1023.6 1023.6 1.4
27/03:30am 7.3 3.8 7.3 100 0.0 WNW 15 19 8 10 1023.6 1023.6 1.4
27/03:00am 7.9 4.9 7.9 100 0.0 WNW 13 15 7 8 1023.3 1023.3 1.4
27/02:30am 6.2 2.5 6.1 99 0.0 W 15 19 8 10 1023.5 1023.5 1.2
27/02:00am 5.9 3.2 5.8 99 0.0 WNW 9 13 5 7 1023.3 1023.3 1.2
27/01:30am 5.6 2.5 5.5 99 0.0 WNW 11 13 6 7 1023.4 1023.4 1.2
27/01:00am 5.7 2.2 5.6 99 0.0 WNW 13 17 7 9 1023.5 1023.5 1.2
27/12:30am 6.0 2.6 5.9 99 0.0 NW 13 13 7 7 1023.4 1023.4 1.2
27/12:00am 6.1 2.7 6.0 99 0.0 WNW 13 13 7 7 1023.2 1023.2 1.2
 
Date/Time
CST
Temp
°C
App
Temp
°C
Dew
Point
°C
Rel
Hum
%
Delta-T
°C
Wind Press
QNH
hPa
Press
MSL
hPa
Rain since
9am
mm
Dir  Spd
km/h
Gust
km/h
Spd
kts
Gust
kts
26/11:30pm 6.4 3.0 6.1 98 0.1 WNW 13 13 7 7 1022.9 1023.0 1.2
26/11:00pm 8.1 5.9 7.7 97 0.2 WSW 9 11 5 6 1022.5 1022.6 1.2
26/10:30pm 7.5 5.1 6.9 96 0.3 W 9 13 5 7 1022.5 1022.6 1.0
26/10:00pm 7.9 5.5 6.8 93 0.5 W 9 13 5 7 1022.4 1022.5 1.0
26/09:30pm 9.9 7.4 8.0 88 0.9 SSW 11 13 6 7 1022.4 1022.5 1.0
26/09:00pm 9.9 7.0 8.3 90 0.8 SW 13 15 7 8 1022.5 1022.6 1.0
26/08:30pm 9.9 7.5 8.5 91 0.7 WSW 11 13 6 7 1022.1 1022.2 1.0
26/08:00pm 9.0 6.0 7.6 91 0.7 W 13 15 7 8 1022.1 1022.2 1.0
26/07:30pm 10.4 7.5 8.0 85 1.2 SW 13 15 7 8 1021.8 1021.9 1.0
26/07:00pm 10.4 7.0 7.8 84 1.3 SW 15 17 8 9 1021.4 1021.5 1.0
26/06:30pm 11.4 7.6 7.7 78 1.8 SW 17 20 9 11 1021.1 1021.2 1.0
26/06:00pm 12.5 8.2 8.0 74 2.2 SSW 20 26 11 14 1020.7 1020.8 1.0
26/05:30pm 13.2 8.7 8.7 74 2.3 SW 22 30 12 16 1020.6 1020.7 1.0
26/05:00pm 14.2 8.6 8.6 69 2.8 SSW 28 37 15 20 1020.1 1020.2 1.0
26/04:30pm 14.3 8.7 8.9 70 2.7 SW 28 39 15 21 1019.4 1019.4 1.0
26/04:00pm 14.6 8.0 8.5 67 3.1 SW 33 43 18 23 1019.1 1019.1 1.0
26/03:30pm 15.0 9.3 9.8 71 2.7 SSW 30 37 16 20 1018.9 1018.9 1.0
26/03:00pm 13.2 10.9 13.0 99 0.1 WSW 17 24 9 13 1018.9 1018.9 1.0
26/02:30pm 13.2 9.7 12.3 94 0.5 SW 22 33 12 18 1018.5 1018.5 1.0
26/02:27pm 13.3 9.7 11.9 91 0.8 SW 22 33 12 18 1018.4 1018.4 1.0
26/02:11pm 12.4 7.2 11.6 95 0.4 SSW 30 48 16 26 1018.5 1018.5 1.0
26/02:07pm 12.7 7.1 11.6 93 0.6 SSW 32 48 17 26 1018.6 1018.6 0.6
26/02:04pm 14.0 8.7 11.3 84 1.4 SSW 30 48 16 26 1018.5 1018.5 0.2
26/02:00pm 14.4 9.6 11.6 83 1.5 SSW 28 39 15 21 1018.5 1018.5 0.2
26/01:51pm 13.4 9.3 11.3 87 1.1 SSW 24 32 13 17 1018.5 1018.5 0.2
26/01:40pm 13.2 8.1 11.9 92 0.7 SSW 30 48 16 26 1018.5 1018.5 0.2
26/01:36pm 13.2 7.7 12.4 95 0.4 SSW 33 48 18 26 1018.6 1018.6 0.2
26/01:30pm 13.9 9.0 11.2 84 1.4 SW 28 43 15 23 1018.5 1018.5 0.2
26/01:22pm 14.0 10.9 12.2 89 1.0 WSW 20 26 11 14 1018.5 1018.5 0.2
26/01:05pm 13.0 6.8 11.4 90 0.8 WSW 35 46 19 25 1018.7 1018.7 0.0
26/01:00pm 13.9 8.3 11.4 85 1.3 WSW 32 46 17 25 1018.5 1018.5 0.0
26/12:30pm 14.7 9.9 10.3 75 2.3 W 26 43 14 23 1018.6 1018.6 0.0
26/12:00pm 14.6 10.6 9.2 70 2.8 W 20 28 11 15 1019.1 1019.1 0.0
26/11:30am 14.7 10.1 8.0 64 3.3 WNW 22 30 12 16 1019.3 1019.3 0.0
26/11:00am 13.9 9.4 8.7 71 2.6 WNW 22 28 12 15 1019.4 1019.4 0.0
26/10:30am 13.5 9.5 8.4 71 2.5 WNW 19 22 10 12 1019.4 1019.4 0.0
26/10:00am 12.6 8.5 7.7 72 2.4 WNW 19 24 10 13 1019.2 1019.2 0.0
26/09:30am 11.7 7.8 7.0 73 2.2 WNW 17 20 9 11 1018.8 1018.8 0.0
26/09:00am 10.1 7.1 7.9 86 1.1 WNW 13 15 7 8 1018.6 1018.6 0.0
26/08:30am 9.8 7.1 8.9 94 0.4 WNW 13 17 7 9 1018.5 1018.5 0.0
26/08:00am 8.8 5.5 8.0 95 0.4 WNW 15 20 8 11 1018.5 1018.5 0.0
26/07:30am 8.8 6.7 8.2 96 0.3 NW 9 13 5 7 1018.0 1018.0 0.0
26/07:00am 9.1 6.6 8.2 94 0.4 NW 11 13 6 7 1017.9 1017.9 0.0
26/06:30am 9.3 6.5 8.4 94 0.4 NW 13 15 7 8 1017.7 1017.7 0.0
26/06:00am 8.7 6.2 8.3 97 0.2 NNW 11 13 6 7 1017.5 1017.5 0.0
26/05:30am 8.8 5.6 8.5 98 0.1 N 15 19 8 10 1017.1 1017.1 0.0
26/05:00am 8.1 5.4 7.5 96 0.3 N 11 13 6 7 1017.1 1017.1 0.0
26/04:30am 9.1 6.2 8.2 94 0.4 N 13 15 7 8 1016.9 1016.9 0.0
26/04:00am 9.6 7.6 8.5 93 0.5 N 9 11 5 6 1017.1 1017.1 0.0
26/03:30am 9.6 7.5 8.4 92 0.6 N 9 11 5 6 1017.1 1017.1 0.0
26/03:00am 9.5 7.7 7.9 90 0.8 N 7 11 4 6 1017.3 1017.3 0.0
26/02:30am 9.9 9.4 7.7 86 1.1 CALM 0 0 0 0 1017.3 1017.3 0.0
26/02:00am 10.0 7.4 7.8 86 1.1 NNE 11 13 6 7 1017.1 1017.1 0.0
26/01:30am 10.3 7.6 7.5 83 1.3 NNE 11 13 6 7 1017.2 1017.2 0.0
26/01:00am 10.5 8.6 7.4 81 1.5 NNE 7 9 4 5 1017.4 1017.4 0.0
26/12:30am 10.9 7.8 7.2 78 1.8 NE 13 15 7 8 1017.6 1017.6 0.0
26/12:00am 10.9 7.8 7.2 78 1.8 NE 13 15 7 8 1018.1 1018.1 0.0
 
Date/Time
CST
Temp
°C
App
Temp
°C
Dew
Point
°C
Rel
Hum
%
Delta-T
°C
Wind Press
QNH
hPa
Press
MSL
hPa
Rain since
9am
mm
Dir  Spd
km/h
Gust
km/h
Spd
kts
Gust
kts
25/11:30pm 10.9 8.9 7.2 78 1.8 ENE 7 9 4 5 1018.3 1018.3 0.0
25/11:00pm 11.1 8.5 7.6 79 1.7 ENE 11 13 6 7 1018.3 1018.3 0.0
25/10:30pm 11.2 8.2 7.7 79 1.7 ENE 13 15 7 8 1018.5 1018.5 0.0
25/10:00pm 11.1 9.0 8.1 82 1.5 E 9 11 5 6 1018.6 1018.6 0.0
25/09:30pm 11.2 8.6 7.9 80 1.6 E 11 13 6 7 1018.3 1018.3 0.0
25/09:00pm 11.4 8.9 8.3 81 1.5 ENE 11 13 6 7 1018.4 1018.4 0.0
25/08:30pm 11.4 9.0 8.6 83 1.4 ENE 11 13 6 7 1018.6 1018.6 0.0
25/08:00pm 11.6 9.6 8.8 83 1.4 E 9 11 5 6 1018.5 1018.5 0.0
25/07:30pm 11.9 9.9 8.6 80 1.6 ENE 9 11 5 6 1018.7 1018.7 0.0
25/07:00pm 12.1 9.7 8.6 79 1.7 ENE 11 11 6 6 1018.3 1018.3 0.0
25/06:30pm 12.3 9.9 8.8 79 1.7 NE 11 11 6 6 1017.9 1017.9 0.0
25/06:00pm 12.7 10.7 8.6 76 2.0 ENE 9 11 5 6 1017.4 1017.4 0.0
25/05:30pm 13.5 11.4 8.1 70 2.7 NE 9 11 5 6 1017.2 1017.2 0.0
25/05:00pm 13.9 11.5 7.0 63 3.4 NNE 9 13 5 7 1017.8 1017.8 0.0
25/04:30pm 14.4 11.1 6.5 59 3.8 NNE 13 15 7 8 1017.2 1017.2 0.0
25/04:00pm 14.6 11.3 6.2 57 4.0 N 13 17 7 9 1018.1 1018.1 0.0
25/03:30pm 14.9 11.2 6.5 57 4.1 NNE 15 20 8 11 1018.1 1018.1 0.0
25/03:00pm 14.8 11.1 6.4 57 4.1 NE 15 20 8 11 1018.4 1018.4 0.0
25/02:30pm 14.6 10.5 6.2 57 4.0 NNE 17 22 9 12 1018.4 1018.4 0.0
25/02:00pm 14.8 11.2 6.9 59 3.9 NNE 15 19 8 10 1018.8 1018.8 0.0
25/01:30pm 14.9 11.0 7.0 59 3.9 NNE 17 24 9 13 1019.6 1019.7 0.0
25/01:00pm 14.8 11.3 7.1 60 3.8 NNE 15 20 8 11 1020.2 1020.3 0.0
25/12:30pm 14.2 11.0 6.8 61 3.6 NE 13 20 7 11 1020.7 1020.8 0.0
25/12:00pm 14.0 10.0 6.8 62 3.5 NE 17 22 9 12 1021.3 1021.4 0.0
25/11:30am 13.5 10.4 7.1 65 3.1 NE 13 17 7 9 1021.6 1021.7 0.0
25/11:00am 12.8 9.7 7.3 69 2.7 NE 13 17 7 9 1022.1 1022.2 0.0
25/10:30am 11.9 9.3 7.6 75 2.1 NE 11 15 6 8 1022.4 1022.5 0.0
25/10:00am 11.0 8.4 7.9 81 1.5 NE 11 17 6 9 1022.5 1022.6 0.0
25/09:30am 10.1 7.5 7.9 86 1.1 NE 11 15 6 8 1022.4 1022.5 0.0
25/09:00am 9.3 6.7 7.9 91 0.7 NE 11 15 6 8 1022.4 1022.5 1.2
25/08:30am 8.8 6.2 7.7 93 0.5 ENE 11 15 6 8 1022.2 1022.3 1.2
25/08:00am 8.5 6.4 8.2 98 0.1 NNE 9 15 5 8 1022.0 1022.1 1.2
25/07:30am 8.6 6.2 8.5 99 0.0 ENE 11 13 6 7 1021.9 1022.0 1.2
25/07:00am 8.7 6.3 8.6 99 0.0 ENE 11 13 6 7 1021.9 1022.0 1.2
25/06:30am 8.8 6.4 8.7 99 0.0 ENE 11 13 6 7 1022.0 1022.1 1.2
25/06:00am 9.0 6.7 8.9 99 0.0 ENE 11 15 6 8 1021.9 1022.0 1.2
25/05:30am 9.2 7.3 9.1 99 0.0 NNE 9 13 5 7 1021.8 1021.9 1.2
25/05:00am 9.3 6.7 9.2 99 0.0 NE 13 17 7 9 1021.9 1022.0 1.2
25/04:30am 9.0 6.3 9.0 100 0.0 NE 13 17 7 9 1022.1 1022.2 1.2
25/04:00am 9.0 7.1 9.0 100 0.0 NE 9 13 5 7 1022.2 1022.3 1.2
25/03:30am 9.1 6.8 9.1 100 0.0 NE 11 15 6 8 1022.3 1022.4 1.2
25/03:00am 9.0 7.1 9.0 100 0.0 NNE 9 13 5 7 1022.5 1022.6 1.2
25/02:30am 8.4 5.9 8.4 100 0.0 NNE 11 13 6 7 1022.7 1022.8 1.2
25/02:00am 7.8 5.2 7.8 100 0.0 N 11 13 6 7 1022.8 1022.9 1.2
25/01:30am 6.9 4.5 6.9 100 0.0 N 9 13 5 7 1022.8 1022.9 1.2
25/01:00am 7.7 5.1 7.7 100 0.0 N 11 15 6 8 1023.1 1023.1 1.2
25/12:30am 7.9 6.1 7.9 100 0.0 N 7 9 4 5 1023.1 1023.1 1.0
25/12:00am 8.1 6.5 8.0 99 0.0 N 6 7 3 4 1023.4 1023.4 1.0
 
Date/Time
CST
Temp
°C
App
Temp
°C
Dew
Point
°C
Rel
Hum
%
Delta-T
°C
Wind Press
QNH
hPa
Press
MSL
hPa
Rain since
9am
mm
Dir  Spd
km/h
Gust
km/h
Spd
kts
Gust
kts
24/11:30pm 8.5 7.0 8.4 99 0.0 N 6 7 3 4 1023.6 1023.6 1.0
24/11:00pm 9.6 8.2 9.5 99 0.0 N 7 9 4 5 1023.7 1023.7 1.0
24/10:30pm 9.9 8.6 9.8 99 0.1 N 7 9 4 5 1023.8 1023.8 1.0
24/10:00pm 10.1 8.4 10.0 99 0.1 NNW 9 11 5 6 1023.9 1023.9 1.0
24/09:30pm 10.0 8.3 9.9 99 0.1 NNW 9 11 5 6 1023.9 1023.9 1.0
24/09:00pm 10.6 9.4 10.4 99 0.1 N 7 7 4 4 1024.0 1024.0 1.0
24/08:30pm 11.0 9.8 9.4 90 0.8 N 6 7 3 4 1023.8 1023.8 1.0
24/08:00pm 10.8 10.6 8.9 88 0.9 CALM 0 2 0 1 1023.6 1023.6 1.0
24/07:30pm 10.8 10.5 8.7 87 1.0 CALM 0 0 0 0 1023.3 1023.3 1.0
24/07:00pm 11.2 10.4 9.5 89 0.9 E 4 6 2 3 1022.9 1023.0 1.0
24/06:30pm 11.4 10.1 10.0 91 0.7 ESE 7 7 4 4 1022.5 1022.6 1.0
24/06:00pm 11.7 10.0 9.8 88 1.0 SE 9 9 5 5 1022.4 1022.5 1.0
24/05:30pm 12.5 10.8 9.9 84 1.3 ESE 9 13 5 7 1022.3 1022.4 1.0
24/05:00pm 13.0 11.5 10.5 85 1.3 E 9 11 5 6 1022.3 1022.4 1.0
24/04:30pm 12.3 10.2 11.2 93 0.6 E 13 17 7 9 1022.4 1022.5 1.0
24/04:09pm 12.6 10.2 11.5 93 0.6 E 15 19 8 10 1022.2 1022.3 1.0
24/04:00pm 12.2 9.9 11.6 96 0.3 E 15 19 8 10 1022.2 1022.3 1.0
24/03:30pm 11.3 9.4 10.4 94 0.5 SSE 11 13 6 7 1022.4 1022.5 0.8
24/03:07pm 11.2 7.5 10.1 93 0.6 SSW 20 26 11 14 1022.4 1022.5 0.6
24/03:00pm 11.8 7.7 10.2 90 0.8 SSW 22 30 12 16 1022.4 1022.5 0.4
24/02:30pm 14.0 11.7 9.0 72 2.5 N 11 17 6 9 1022.2 1022.3 0.4
24/02:00pm 13.0 11.0 10.0 82 1.5 N 11 15 6 8 1022.5 1022.6 0.4
24/01:30pm 13.1 10.5 10.8 86 1.2 NNE 15 19 8 10 1022.8 1022.9 0.4
24/01:05pm 12.2 10.1 9.9 86 1.2 NNE 11 13 6 7 1023.1 1023.1 0.4
24/01:00pm 12.2 10.6 10.3 88 1.0 NE 9 11 5 6 1023.2 1023.2 0.4
24/12:30pm 12.0 8.5 10.9 93 0.6 SW 20 28 11 15 1023.4 1023.4 0.2
24/12:00pm 14.5 12.5 10.3 76 2.2 NW 11 15 6 8 1023.3 1023.3 0.2

Other Formats:

Comma delimited format used in spreadsheet applications
http://www.bom.gov.au/fwo/IDS60801/IDS60801.94651.axf

JavaScript Object Notation format (JSON) in row-major order
http://www.bom.gov.au/fwo/IDS60801/IDS60801.94651.json